sensor_id;sensor_type;location;lat;lon;timestamp;temperature;humidity
65568;DHT22;52211;50.154;8.682;2022-07-06T00:01:30;22.10;34.20
65568;DHT22;52211;50.154;8.682;2022-07-06T00:04:01;22.10;34.30
65568;DHT22;52211;50.154;8.682;2022-07-06T00:06:34;22.00;34.20
65568;DHT22;52211;50.154;8.682;2022-07-06T00:09:02;22.00;34.40
65568;DHT22;52211;50.154;8.682;2022-07-06T00:11:40;22.00;35.10
65568;DHT22;52211;50.154;8.682;2022-07-06T00:14:12;21.90;34.60
65568;DHT22;52211;50.154;8.682;2022-07-06T00:16:46;21.90;34.70
65568;DHT22;52211;50.154;8.682;2022-07-06T00:19:13;21.90;34.60
65568;DHT22;52211;50.154;8.682;2022-07-06T00:21:42;21.90;34.70
65568;DHT22;52211;50.154;8.682;2022-07-06T00:24:14;21.90;34.70
65568;DHT22;52211;50.154;8.682;2022-07-06T00:26:43;21.80;34.80
65568;DHT22;52211;50.154;8.682;2022-07-06T00:29:13;21.80;35.00
65568;DHT22;52211;50.154;8.682;2022-07-06T00:31:39;21.80;35.00
65568;DHT22;52211;50.154;8.682;2022-07-06T00:34:13;21.80;35.10
65568;DHT22;52211;50.154;8.682;2022-07-06T00:36:45;21.80;35.30
65568;DHT22;52211;50.154;8.682;2022-07-06T00:39:11;21.80;35.30
65568;DHT22;52211;50.154;8.682;2022-07-06T00:41:38;21.80;35.30
65568;DHT22;52211;50.154;8.682;2022-07-06T00:44:10;21.70;35.30
65568;DHT22;52211;50.154;8.682;2022-07-06T00:46:39;21.70;35.40
65568;DHT22;52211;50.154;8.682;2022-07-06T00:49:08;21.70;35.60
65568;DHT22;52211;50.154;8.682;2022-07-06T00:51:56;21.70;35.80
65568;DHT22;52211;50.154;8.682;2022-07-06T00:54:30;21.60;35.80
65568;DHT22;52211;50.154;8.682;2022-07-06T00:57:03;21.60;36.00
65568;DHT22;52211;50.154;8.682;2022-07-06T00:59:30;21.60;36.20
65568;DHT22;52211;50.154;8.682;2022-07-06T01:01:58;21.60;36.00
65568;DHT22;52211;50.154;8.682;2022-07-06T01:04:25;21.50;36.10
65568;DHT22;52211;50.154;8.682;2022-07-06T01:07:00;21.50;36.10
65568;DHT22;52211;50.154;8.682;2022-07-06T01:09:31;21.50;36.60
65568;DHT22;52211;50.154;8.682;2022-07-06T01:11:58;21.50;36.30
65568;DHT22;52211;50.154;8.682;2022-07-06T01:14:25;21.50;36.50
65568;DHT22;52211;50.154;8.682;2022-07-06T01:16:57;21.40;36.50
65568;DHT22;52211;50.154;8.682;2022-07-06T01:19:26;21.40;36.80
65568;DHT22;52211;50.154;8.682;2022-07-06T01:21:53;21.40;36.70
65568;DHT22;52211;50.154;8.682;2022-07-06T01:24:21;21.40;36.80
65568;DHT22;52211;50.154;8.682;2022-07-06T01:26:50;21.30;36.80
65568;DHT22;52211;50.154;8.682;2022-07-06T01:29:20;21.30;37.00
65568;DHT22;52211;50.154;8.682;2022-07-06T01:31:48;21.30;37.00
65568;DHT22;52211;50.154;8.682;2022-07-06T01:34:20;21.20;36.90
65568;DHT22;52211;50.154;8.682;2022-07-06T01:36:49;21.20;37.00
65568;DHT22;52211;50.154;8.682;2022-07-06T01:39:23;21.20;37.20
65568;DHT22;52211;50.154;8.682;2022-07-06T01:41:50;21.10;37.40
65568;DHT22;52211;50.154;8.682;2022-07-06T01:44:22;21.10;37.30
65568;DHT22;52211;50.154;8.682;2022-07-06T01:46:51;21.10;37.40
65568;DHT22;52211;50.154;8.682;2022-07-06T01:49:22;21.00;37.40
65568;DHT22;52211;50.154;8.682;2022-07-06T01:51:56;21.00;37.50
65568;DHT22;52211;50.154;8.682;2022-07-06T01:54:25;21.00;37.70
65568;DHT22;52211;50.154;8.682;2022-07-06T01:56:52;20.90;37.50
65568;DHT22;52211;50.154;8.682;2022-07-06T01:59:21;20.90;37.60
65568;DHT22;52211;50.154;8.682;2022-07-06T02:01:56;20.80;37.60
65568;DHT22;52211;50.154;8.682;2022-07-06T02:04:27;20.80;37.90
65568;DHT22;52211;50.154;8.682;2022-07-06T02:06:57;20.80;37.90
65568;DHT22;52211;50.154;8.682;2022-07-06T02:09:24;20.80;38.30
65568;DHT22;52211;50.154;8.682;2022-07-06T02:11:51;20.70;38.10
65568;DHT22;52211;50.154;8.682;2022-07-06T02:14:18;20.70;38.30
65568;DHT22;52211;50.154;8.682;2022-07-06T02:16:45;20.70;38.40
65568;DHT22;52211;50.154;8.682;2022-07-06T02:19:14;20.60;38.50
65568;DHT22;52211;50.154;8.682;2022-07-06T02:21:46;20.60;38.60
65568;DHT22;52211;50.154;8.682;2022-07-06T02:24:13;20.60;38.60
65568;DHT22;52211;50.154;8.682;2022-07-06T02:26:45;20.50;38.60
65568;DHT22;52211;50.154;8.682;2022-07-06T02:29:14;20.50;39.40
65568;DHT22;52211;50.154;8.682;2022-07-06T02:31:45;20.50;38.80
65568;DHT22;52211;50.154;8.682;2022-07-06T02:34:17;20.50;38.90
65568;DHT22;52211;50.154;8.682;2022-07-06T02:36:49;20.40;39.00
65568;DHT22;52211;50.154;8.682;2022-07-06T02:39:16;20.40;39.20
65568;DHT22;52211;50.154;8.682;2022-07-06T02:41:45;20.40;39.10
65568;DHT22;52211;50.154;8.682;2022-07-06T02:44:18;20.40;39.20
65568;DHT22;52211;50.154;8.682;2022-07-06T02:46:45;20.40;39.30
65568;DHT22;52211;50.154;8.682;2022-07-06T02:49:14;20.30;39.30
65568;DHT22;52211;50.154;8.682;2022-07-06T02:51:46;20.30;39.40
65568;DHT22;52211;50.154;8.682;2022-07-06T02:54:20;20.30;39.50
65568;DHT22;52211;50.154;8.682;2022-07-06T02:56:49;20.20;39.80
65568;DHT22;52211;50.154;8.682;2022-07-06T02:59:21;20.20;39.70
65568;DHT22;52211;50.154;8.682;2022-07-06T03:01:53;20.10;39.70
65568;DHT22;52211;50.154;8.682;2022-07-06T03:04:22;20.10;39.70
65568;DHT22;52211;50.154;8.682;2022-07-06T03:06:51;20.10;39.80
65568;DHT22;52211;50.154;8.682;2022-07-06T03:09:18;20.10;40.10
65568;DHT22;52211;50.154;8.682;2022-07-06T03:11:52;20.00;40.70
65568;DHT22;52211;50.154;8.682;2022-07-06T03:14:24;20.00;40.20
65568;DHT22;52211;50.154;8.682;2022-07-06T03:16:54;20.00;40.00
65568;DHT22;52211;50.154;8.682;2022-07-06T03:19:21;19.90;40.30
65568;DHT22;52211;50.154;8.682;2022-07-06T03:21:50;19.90;40.10
65568;DHT22;52211;50.154;8.682;2022-07-06T03:24:19;19.80;40.10
65568;DHT22;52211;50.154;8.682;2022-07-06T03:26:53;19.80;40.30
65568;DHT22;52211;50.154;8.682;2022-07-06T03:29:25;19.80;40.50
65568;DHT22;52211;50.154;8.682;2022-07-06T03:31:54;19.80;40.50
65568;DHT22;52211;50.154;8.682;2022-07-06T03:34:26;19.70;40.50
65568;DHT22;52211;50.154;8.682;2022-07-06T03:36:55;19.70;40.60
65568;DHT22;52211;50.154;8.682;2022-07-06T03:39:26;19.70;40.50
65568;DHT22;52211;50.154;8.682;2022-07-06T03:41:58;19.60;40.60
65568;DHT22;52211;50.154;8.682;2022-07-06T03:44:25;19.60;40.80
65568;DHT22;52211;50.154;8.682;2022-07-06T03:46:57;19.60;40.70
65568;DHT22;52211;50.154;8.682;2022-07-06T03:49:30;19.60;40.70
65568;DHT22;52211;50.154;8.682;2022-07-06T03:52:01;19.50;40.80
65568;DHT22;52211;50.154;8.682;2022-07-06T03:54:28;19.50;40.80
65568;DHT22;52211;50.154;8.682;2022-07-06T03:56:58;19.50;40.90
65568;DHT22;52211;50.154;8.682;2022-07-06T03:59:27;19.50;41.10
65568;DHT22;52211;50.154;8.682;2022-07-06T04:02:00;19.50;41.00
65568;DHT22;52211;50.154;8.682;2022-07-06T04:04:29;19.50;41.20
65568;DHT22;52211;50.154;8.682;2022-07-06T04:06:56;19.40;41.10
65568;DHT22;52211;50.154;8.682;2022-07-06T04:09:26;19.40;41.20
65568;DHT22;52211;50.154;8.682;2022-07-06T04:11:55;19.40;41.30
65568;DHT22;52211;50.154;8.682;2022-07-06T04:14:22;19.40;41.40
65568;DHT22;52211;50.154;8.682;2022-07-06T04:16:53;19.40;41.50
65568;DHT22;52211;50.154;8.682;2022-07-06T04:19:23;19.40;41.50
65568;DHT22;52211;50.154;8.682;2022-07-06T04:21:52;19.30;41.50
65568;DHT22;52211;50.154;8.682;2022-07-06T04:24:23;19.30;41.80
65568;DHT22;52211;50.154;8.682;2022-07-06T04:26:53;19.40;41.70
65568;DHT22;52211;50.154;8.682;2022-07-06T04:29:20;19.30;41.70
65568;DHT22;52211;50.154;8.682;2022-07-06T04:31:47;19.40;41.70
65568;DHT22;52211;50.154;8.682;2022-07-06T04:34:14;19.30;41.70
65568;DHT22;52211;50.154;8.682;2022-07-06T04:36:47;19.30;41.80
65568;DHT22;52211;50.154;8.682;2022-07-06T04:39:21;19.30;41.90
65568;DHT22;52211;50.154;8.682;2022-07-06T04:41:55;19.40;42.30
65568;DHT22;52211;50.154;8.682;2022-07-06T04:44:26;19.30;42.30
65568;DHT22;52211;50.154;8.682;2022-07-06T04:46:53;19.30;42.30
65568;DHT22;52211;50.154;8.682;2022-07-06T04:49:23;19.30;42.20
65568;DHT22;52211;50.154;8.682;2022-07-06T04:51:50;19.30;42.60
65568;DHT22;52211;50.154;8.682;2022-07-06T04:54:17;19.30;42.40
65568;DHT22;52211;50.154;8.682;2022-07-06T04:56:48;19.30;42.40
65568;DHT22;52211;50.154;8.682;2022-07-06T04:59:20;19.30;42.50
65568;DHT22;52211;50.154;8.682;2022-07-06T05:01:51;19.30;42.50
65568;DHT22;52211;50.154;8.682;2022-07-06T05:04:20;19.30;42.70
65568;DHT22;52211;50.154;8.682;2022-07-06T05:06:51;19.30;42.70
65568;DHT22;52211;50.154;8.682;2022-07-06T05:09:20;19.30;42.80
65568;DHT22;52211;50.154;8.682;2022-07-06T05:11:49;19.30;42.80
65568;DHT22;52211;50.154;8.682;2022-07-06T05:14:21;19.30;43.10
65568;DHT22;52211;50.154;8.682;2022-07-06T05:16:50;19.30;43.10
65568;DHT22;52211;50.154;8.682;2022-07-06T05:19:17;19.30;43.10
65568;DHT22;52211;50.154;8.682;2022-07-06T05:21:49;19.40;43.90
65568;DHT22;52211;50.154;8.682;2022-07-06T05:24:16;19.40;43.40
65568;DHT22;52211;50.154;8.682;2022-07-06T05:26:46;19.40;43.20
65568;DHT22;52211;50.154;8.682;2022-07-06T05:29:15;19.50;43.40
65568;DHT22;52211;50.154;8.682;2022-07-06T05:31:42;19.50;43.40
65568;DHT22;52211;50.154;8.682;2022-07-06T05:34:15;19.60;43.60
65568;DHT22;52211;50.154;8.682;2022-07-06T05:36:44;19.60;43.50
65568;DHT22;52211;50.154;8.682;2022-07-06T05:39:11;19.70;43.50
65568;DHT22;52211;50.154;8.682;2022-07-06T05:41:45;19.80;43.60
65568;DHT22;52211;50.154;8.682;2022-07-06T05:44:15;19.80;43.50
65568;DHT22;52211;50.154;8.682;2022-07-06T05:46:44;19.90;43.60
65568;DHT22;52211;50.154;8.682;2022-07-06T05:49:13;19.90;43.70
65568;DHT22;52211;50.154;8.682;2022-07-06T05:52:04;20.00;43.50
65568;DHT22;52211;50.154;8.682;2022-07-06T05:54:35;20.10;43.70
65568;DHT22;52211;50.154;8.682;2022-07-06T05:57:09;20.10;43.60
65568;DHT22;52211;50.154;8.682;2022-07-06T05:59:36;20.10;43.60
65568;DHT22;52211;50.154;8.682;2022-07-06T06:02:06;20.20;43.70
65568;DHT22;52211;50.154;8.682;2022-07-06T06:04:33;20.30;44.00
65568;DHT22;52211;50.154;8.682;2022-07-06T06:07:00;20.30;43.80
65568;DHT22;52211;50.154;8.682;2022-07-06T06:09:29;20.30;43.70
65568;DHT22;52211;50.154;8.682;2022-07-06T06:11:59;20.40;43.80
65568;DHT22;52211;50.154;8.682;2022-07-06T06:14:28;20.50;43.70
65568;DHT22;52211;50.154;8.682;2022-07-06T06:16:57;20.50;43.70
65568;DHT22;52211;50.154;8.682;2022-07-06T06:19:27;20.60;43.80
65568;DHT22;52211;50.154;8.682;2022-07-06T06:21:53;20.60;43.70
65568;DHT22;52211;50.154;8.682;2022-07-06T06:24:20;20.60;43.70
65568;DHT22;52211;50.154;8.682;2022-07-06T06:26:56;20.60;43.70
65568;DHT22;52211;50.154;8.682;2022-07-06T06:29:28;20.70;43.70
65568;DHT22;52211;50.154;8.682;2022-07-06T06:31:55;20.80;43.90
65568;DHT22;52211;50.154;8.682;2022-07-06T06:34:22;20.80;43.70
65568;DHT22;52211;50.154;8.682;2022-07-06T06:36:51;20.90;43.80
65568;DHT22;52211;50.154;8.682;2022-07-06T06:39:23;21.00;43.80
65568;DHT22;52211;50.154;8.682;2022-07-06T06:41:50;21.00;43.60
65568;DHT22;52211;50.154;8.682;2022-07-06T06:44:19;21.10;43.60
65568;DHT22;52211;50.154;8.682;2022-07-06T06:46:54;21.10;43.60
65568;DHT22;52211;50.154;8.682;2022-07-06T06:49:21;21.10;43.70
65568;DHT22;52211;50.154;8.682;2022-07-06T06:51:53;21.20;43.70
65568;DHT22;52211;50.154;8.682;2022-07-06T06:54:40;21.30;43.90
65568;DHT22;52211;50.154;8.682;2022-07-06T06:57:09;21.40;43.70
65568;DHT22;52211;50.154;8.682;2022-07-06T06:59:39;21.40;43.70
65568;DHT22;52211;50.154;8.682;2022-07-06T07:02:08;21.50;43.60
65568;DHT22;52211;50.154;8.682;2022-07-06T07:04:37;21.50;43.60
65568;DHT22;52211;50.154;8.682;2022-07-06T07:07:04;21.60;43.60
65568;DHT22;52211;50.154;8.682;2022-07-06T07:09:33;21.70;43.60
65568;DHT22;52211;50.154;8.682;2022-07-06T07:12:00;21.70;43.40
65568;DHT22;52211;50.154;8.682;2022-07-06T07:14:32;21.70;43.40
65568;DHT22;52211;50.154;8.682;2022-07-06T07:17:01;21.80;43.30
65568;DHT22;52211;50.154;8.682;2022-07-06T07:19:33;21.70;43.40
65568;DHT22;52211;50.154;8.682;2022-07-06T07:22:00;21.80;43.40
65568;DHT22;52211;50.154;8.682;2022-07-06T07:24:32;21.80;43.40
65568;DHT22;52211;50.154;8.682;2022-07-06T07:26:59;21.80;43.50
65568;DHT22;52211;50.154;8.682;2022-07-06T07:29:31;21.80;43.30
65568;DHT22;52211;50.154;8.682;2022-07-06T07:31:58;21.90;43.40
65568;DHT22;52211;50.154;8.682;2022-07-06T07:34:28;21.90;43.40
65568;DHT22;52211;50.154;8.682;2022-07-06T07:36:57;22.00;43.30
65568;DHT22;52211;50.154;8.682;2022-07-06T07:39:28;22.00;43.20
65568;DHT22;52211;50.154;8.682;2022-07-06T07:41:58;22.10;43.20
65568;DHT22;52211;50.154;8.682;2022-07-06T07:44:25;22.10;43.10
65568;DHT22;52211;50.154;8.682;2022-07-06T07:47:00;22.20;43.00
65568;DHT22;52211;50.154;8.682;2022-07-06T07:49:31;22.20;43.00
65568;DHT22;52211;50.154;8.682;2022-07-06T07:52:03;22.30;42.80
65568;DHT22;52211;50.154;8.682;2022-07-06T07:54:32;22.40;42.80
65568;DHT22;52211;50.154;8.682;2022-07-06T07:57:07;22.50;42.70
65568;DHT22;52211;50.154;8.682;2022-07-06T07:59:36;22.50;42.50
65568;DHT22;52211;50.154;8.682;2022-07-06T08:02:06;22.60;42.40
65568;DHT22;52211;50.154;8.682;2022-07-06T08:04:35;22.70;42.30
65568;DHT22;52211;50.154;8.682;2022-07-06T08:07:05;22.80;42.20
65568;DHT22;52211;50.154;8.682;2022-07-06T08:09:37;22.90;42.10
65568;DHT22;52211;50.154;8.682;2022-07-06T08:12:04;23.00;42.00
65568;DHT22;52211;50.154;8.682;2022-07-06T08:14:36;23.10;41.70
65568;DHT22;52211;50.154;8.682;2022-07-06T08:17:05;23.10;41.50
65568;DHT22;52211;50.154;8.682;2022-07-06T08:19:32;23.10;41.50
65568;DHT22;52211;50.154;8.682;2022-07-06T08:22:03;23.10;41.60
65568;DHT22;52211;50.154;8.682;2022-07-06T08:25:06;23.20;41.50
65568;DHT22;52211;50.154;8.682;2022-07-06T08:27:48;23.20;41.30
65568;DHT22;52211;50.154;8.682;2022-07-06T08:30:18;23.30;41.40
65568;DHT22;52211;50.154;8.682;2022-07-06T08:32:45;23.30;41.30
65568;DHT22;52211;50.154;8.682;2022-07-06T08:35:32;23.40;41.20
65568;DHT22;52211;50.154;8.682;2022-07-06T08:38:02;23.50;41.20
65568;DHT22;52211;50.154;8.682;2022-07-06T08:40:37;23.50;40.90
65568;DHT22;52211;50.154;8.682;2022-07-06T08:43:09;23.60;40.70
65568;DHT22;52211;50.154;8.682;2022-07-06T08:45:35;23.60;40.40
65568;DHT22;52211;50.154;8.682;2022-07-06T08:48:05;23.70;40.40
65568;DHT22;52211;50.154;8.682;2022-07-06T08:50:36;23.70;40.40
65568;DHT22;52211;50.154;8.682;2022-07-06T08:53:04;23.70;40.50
65568;DHT22;52211;50.154;8.682;2022-07-06T08:55:34;23.70;40.40
65568;DHT22;52211;50.154;8.682;2022-07-06T08:58:09;23.80;40.30
65568;DHT22;52211;50.154;8.682;2022-07-06T09:00:43;23.80;40.30
65568;DHT22;52211;50.154;8.682;2022-07-06T09:03:15;23.80;40.30
65568;DHT22;52211;50.154;8.682;2022-07-06T09:05:45;23.90;40.40
65568;DHT22;52211;50.154;8.682;2022-07-06T09:08:22;24.00;40.10
65568;DHT22;52211;50.154;8.682;2022-07-06T09:10:52;24.10;40.10
65568;DHT22;52211;50.154;8.682;2022-07-06T09:13:22;24.10;40.10
65568;DHT22;52211;50.154;8.682;2022-07-06T09:15:55;24.20;39.80
65568;DHT22;52211;50.154;8.682;2022-07-06T09:18:45;24.20;39.60
65568;DHT22;52211;50.154;8.682;2022-07-06T09:21:29;24.20;39.40
65568;DHT22;52211;50.154;8.682;2022-07-06T09:24:05;24.20;39.30
65568;DHT22;52211;50.154;8.682;2022-07-06T09:26:35;24.20;39.30
65568;DHT22;52211;50.154;8.682;2022-07-06T09:29:05;24.30;39.40
65568;DHT22;52211;50.154;8.682;2022-07-06T09:31:35;24.30;39.40
65568;DHT22;52211;50.154;8.682;2022-07-06T09:34:10;24.30;39.50
65568;DHT22;52211;50.154;8.682;2022-07-06T09:36:48;24.30;39.20
65568;DHT22;52211;50.154;8.682;2022-07-06T09:39:29;24.40;39.20
65568;DHT22;52211;50.154;8.682;2022-07-06T09:42:00;24.40;38.90
65568;DHT22;52211;50.154;8.682;2022-07-06T09:44:35;24.40;38.70
65568;DHT22;52211;50.154;8.682;2022-07-06T09:47:09;24.40;38.70
65568;DHT22;52211;50.154;8.682;2022-07-06T09:49:45;24.40;38.70
65568;DHT22;52211;50.154;8.682;2022-07-06T09:52:18;24.40;38.70
65568;DHT22;52211;50.154;8.682;2022-07-06T09:54:48;24.50;38.80
65568;DHT22;52211;50.154;8.682;2022-07-06T09:57:17;24.60;38.70
65568;DHT22;52211;50.154;8.682;2022-07-06T09:59:50;24.70;39.20
65568;DHT22;52211;50.154;8.682;2022-07-06T10:02:20;24.80;38.10
65568;DHT22;52211;50.154;8.682;2022-07-06T10:04:52;24.80;38.20
65568;DHT22;52211;50.154;8.682;2022-07-06T10:07:25;24.90;38.00
65568;DHT22;52211;50.154;8.682;2022-07-06T10:09:53;25.00;37.70
65568;DHT22;52211;50.154;8.682;2022-07-06T10:12:20;25.00;37.50
65568;DHT22;52211;50.154;8.682;2022-07-06T10:14:50;25.10;37.60
65568;DHT22;52211;50.154;8.682;2022-07-06T10:17:18;25.10;37.50
65568;DHT22;52211;50.154;8.682;2022-07-06T10:19:52;25.20;37.30
65568;DHT22;52211;50.154;8.682;2022-07-06T10:22:22;25.30;36.90
65568;DHT22;52211;50.154;8.682;2022-07-06T10:24:49;25.30;36.90
65568;DHT22;52211;50.154;8.682;2022-07-06T10:27:19;25.30;36.90
65568;DHT22;52211;50.154;8.682;2022-07-06T10:29:52;25.40;36.80
65568;DHT22;52211;50.154;8.682;2022-07-06T10:32:25;25.50;36.50
65568;DHT22;52211;50.154;8.682;2022-07-06T10:34:53;25.60;36.70
65568;DHT22;52211;50.154;8.682;2022-07-06T10:37:26;25.70;36.70
65568;DHT22;52211;50.154;8.682;2022-07-06T10:39:54;25.80;36.40
65568;DHT22;52211;50.154;8.682;2022-07-06T10:42:53;25.90;36.40
65568;DHT22;52211;50.154;8.682;2022-07-06T10:50:39;26.00;36.30
65568;DHT22;52211;50.154;8.682;2022-07-06T10:53:12;26.10;36.00
65568;DHT22;52211;50.154;8.682;2022-07-06T10:55:48;26.10;35.50
65568;DHT22;52211;50.154;8.682;2022-07-06T10:58:50;26.20;35.40
65568;DHT22;52211;50.154;8.682;2022-07-06T11:01:20;26.10;35.30
65568;DHT22;52211;50.154;8.682;2022-07-06T11:03:48;26.10;35.40
65568;DHT22;52211;50.154;8.682;2022-07-06T11:06:38;26.20;35.40
65568;DHT22;52211;50.154;8.682;2022-07-06T11:09:10;26.20;35.00
65568;DHT22;52211;50.154;8.682;2022-07-06T11:11:41;26.40;35.30
65568;DHT22;52211;50.154;8.682;2022-07-06T11:19:25;27.00;35.20
65568;DHT22;52211;50.154;8.682;2022-07-06T11:21:56;27.30;35.10
65568;DHT22;52211;50.154;8.682;2022-07-06T11:24:28;27.60;35.30
65568;DHT22;52211;50.154;8.682;2022-07-06T11:26:57;28.00;34.90
65568;DHT22;52211;50.154;8.682;2022-07-06T11:29:28;28.30;34.80
65568;DHT22;52211;50.154;8.682;2022-07-06T11:32:06;28.70;34.20
65568;DHT22;52211;50.154;8.682;2022-07-06T11:34:42;29.00;34.00
65568;DHT22;52211;50.154;8.682;2022-07-06T11:37:14;29.30;33.70
65568;DHT22;52211;50.154;8.682;2022-07-06T11:39:49;29.70;33.40
65568;DHT22;52211;50.154;8.682;2022-07-06T11:42:17;29.90;33.20
65568;DHT22;52211;50.154;8.682;2022-07-06T11:44:49;30.20;32.80
65568;DHT22;52211;50.154;8.682;2022-07-06T11:47:30;30.40;32.70
65568;DHT22;52211;50.154;8.682;2022-07-06T11:49:59;30.50;31.80
65568;DHT22;52211;50.154;8.682;2022-07-06T11:52:26;30.60;31.60
65568;DHT22;52211;50.154;8.682;2022-07-06T11:55:02;30.70;31.50
65568;DHT22;52211;50.154;8.682;2022-07-06T11:57:32;30.70;30.90
65568;DHT22;52211;50.154;8.682;2022-07-06T12:00:01;30.80;30.90
65568;DHT22;52211;50.154;8.682;2022-07-06T12:02:29;30.90;31.30
65568;DHT22;52211;50.154;8.682;2022-07-06T12:04:56;31.10;31.30
65568;DHT22;52211;50.154;8.682;2022-07-06T12:07:23;31.30;31.10
65568;DHT22;52211;50.154;8.682;2022-07-06T12:09:52;31.60;31.00
65568;DHT22;52211;50.154;8.682;2022-07-06T12:12:21;31.80;30.80
65568;DHT22;52211;50.154;8.682;2022-07-06T12:14:52;32.10;30.50
65568;DHT22;52211;50.154;8.682;2022-07-06T12:17:20;32.30;30.10
65568;DHT22;52211;50.154;8.682;2022-07-06T12:19:55;32.50;30.00
65568;DHT22;52211;50.154;8.682;2022-07-06T12:22:25;32.80;29.80
65568;DHT22;52211;50.154;8.682;2022-07-06T12:24:55;33.00;29.90
65568;DHT22;52211;50.154;8.682;2022-07-06T12:27:34;33.30;29.70
65568;DHT22;52211;50.154;8.682;2022-07-06T12:30:11;33.50;29.30
65568;DHT22;52211;50.154;8.682;2022-07-06T12:33:17;33.50;28.70
65568;DHT22;52211;50.154;8.682;2022-07-06T12:35:45;33.50;29.00
65568;DHT22;52211;50.154;8.682;2022-07-06T12:38:14;33.40;28.60
65568;DHT22;52211;50.154;8.682;2022-07-06T12:40:48;33.30;28.50
65568;DHT22;52211;50.154;8.682;2022-07-06T12:43:47;33.30;28.60
65568;DHT22;52211;50.154;8.682;2022-07-06T12:46:26;33.30;28.70
65568;DHT22;52211;50.154;8.682;2022-07-06T12:49:24;33.40;28.40
65568;DHT22;52211;50.154;8.682;2022-07-06T12:51:59;33.50;28.30
65568;DHT22;52211;50.154;8.682;2022-07-06T12:57:15;33.70;28.40
65568;DHT22;52211;50.154;8.682;2022-07-06T13:02:35;33.90;27.90
65568;DHT22;52211;50.154;8.682;2022-07-06T13:05:29;34.00;27.70
65568;DHT22;52211;50.154;8.682;2022-07-06T13:08:01;34.20;27.80
65568;DHT22;52211;50.154;8.682;2022-07-06T13:10:33;34.20;27.50
65568;DHT22;52211;50.154;8.682;2022-07-06T13:13:04;34.30;27.70
65568;DHT22;52211;50.154;8.682;2022-07-06T13:15:37;34.30;27.30
65568;DHT22;52211;50.154;8.682;2022-07-06T13:18:06;34.30;27.40
65568;DHT22;52211;50.154;8.682;2022-07-06T13:20:41;34.30;27.10
65568;DHT22;52211;50.154;8.682;2022-07-06T13:23:15;34.30;26.90
65568;DHT22;52211;50.154;8.682;2022-07-06T13:25:42;34.30;27.00
65568;DHT22;52211;50.154;8.682;2022-07-06T13:28:12;34.20;27.00
65568;DHT22;52211;50.154;8.682;2022-07-06T13:30:46;34.20;27.00
65568;DHT22;52211;50.154;8.682;2022-07-06T13:33:18;34.10;26.90
65568;DHT22;52211;50.154;8.682;2022-07-06T13:35:47;34.00;26.80
65568;DHT22;52211;50.154;8.682;2022-07-06T13:38:20;34.00;27.00
65568;DHT22;52211;50.154;8.682;2022-07-06T13:40:51;34.00;27.00
65568;DHT22;52211;50.154;8.682;2022-07-06T13:43:19;34.00;26.80
65568;DHT22;52211;50.154;8.682;2022-07-06T13:45:47;34.00;26.70
65568;DHT22;52211;50.154;8.682;2022-07-06T13:48:16;34.00;26.80
65568;DHT22;52211;50.154;8.682;2022-07-06T13:50:45;34.00;26.70
65568;DHT22;52211;50.154;8.682;2022-07-06T13:53:15;34.00;26.70
65568;DHT22;52211;50.154;8.682;2022-07-06T13:55:42;33.90;26.70
65568;DHT22;52211;50.154;8.682;2022-07-06T13:58:10;33.90;26.80
65568;DHT22;52211;50.154;8.682;2022-07-06T14:00:40;33.90;26.90
65568;DHT22;52211;50.154;8.682;2022-07-06T14:03:10;34.00;26.80
65568;DHT22;52211;50.154;8.682;2022-07-06T14:05:44;34.00;26.50
65568;DHT22;52211;50.154;8.682;2022-07-06T14:08:11;34.00;26.60
65568;DHT22;52211;50.154;8.682;2022-07-06T14:10:43;34.00;26.70
65568;DHT22;52211;50.154;8.682;2022-07-06T14:13:12;34.10;26.70
65568;DHT22;52211;50.154;8.682;2022-07-06T14:15:48;34.20;26.60
65568;DHT22;52211;50.154;8.682;2022-07-06T14:18:16;34.30;26.60
65568;DHT22;52211;50.154;8.682;2022-07-06T14:20:46;34.40;26.50
65568;DHT22;52211;50.154;8.682;2022-07-06T14:23:16;34.40;26.40
65568;DHT22;52211;50.154;8.682;2022-07-06T14:25:49;34.40;26.30
65568;DHT22;52211;50.154;8.682;2022-07-06T14:28:20;34.30;26.10
65568;DHT22;52211;50.154;8.682;2022-07-06T14:30:50;34.10;26.00
65568;DHT22;52211;50.154;8.682;2022-07-06T14:33:19;34.00;26.10
65568;DHT22;52211;50.154;8.682;2022-07-06T14:35:52;33.90;26.20
65568;DHT22;52211;50.154;8.682;2022-07-06T14:38:19;33.80;25.90
65568;DHT22;52211;50.154;8.682;2022-07-06T14:40:47;33.70;26.00
65568;DHT22;52211;50.154;8.682;2022-07-06T14:43:16;33.60;26.00
65568;DHT22;52211;50.154;8.682;2022-07-06T14:45:47;33.40;25.90
65568;DHT22;52211;50.154;8.682;2022-07-06T14:48:14;33.30;25.90
65568;DHT22;52211;50.154;8.682;2022-07-06T14:50:41;33.10;25.90
65568;DHT22;52211;50.154;8.682;2022-07-06T14:53:10;32.80;25.70
65568;DHT22;52211;50.154;8.682;2022-07-06T14:55:42;32.50;25.70
65568;DHT22;52211;50.154;8.682;2022-07-06T14:58:14;32.20;25.50
65568;DHT22;52211;50.154;8.682;2022-07-06T15:00:45;31.80;25.60
65568;DHT22;52211;50.154;8.682;2022-07-06T15:03:28;31.50;25.70
65568;DHT22;52211;50.154;8.682;2022-07-06T15:06:00;31.20;25.70
65568;DHT22;52211;50.154;8.682;2022-07-06T15:08:29;30.90;25.80
65568;DHT22;52211;50.154;8.682;2022-07-06T15:10:59;30.60;25.90
65568;DHT22;52211;50.154;8.682;2022-07-06T15:13:29;30.30;25.90
65568;DHT22;52211;50.154;8.682;2022-07-06T15:15:56;30.10;26.10
65568;DHT22;52211;50.154;8.682;2022-07-06T15:18:29;29.80;26.10
65568;DHT22;52211;50.154;8.682;2022-07-06T15:20:58;29.60;26.20
65568;DHT22;52211;50.154;8.682;2022-07-06T15:23:28;29.40;26.20
65568;DHT22;52211;50.154;8.682;2022-07-06T15:25:58;29.20;26.20
65568;DHT22;52211;50.154;8.682;2022-07-06T15:28:25;29.00;26.20
65568;DHT22;52211;50.154;8.682;2022-07-06T15:30:55;28.90;26.30
65568;DHT22;52211;50.154;8.682;2022-07-06T15:33:29;28.70;26.30
65568;DHT22;52211;50.154;8.682;2022-07-06T15:35:56;28.40;26.20
65568;DHT22;52211;50.154;8.682;2022-07-06T15:38:28;28.30;26.30
65568;DHT22;52211;50.154;8.682;2022-07-06T15:40:58;28.10;26.50
65568;DHT22;52211;50.154;8.682;2022-07-06T15:43:33;28.00;26.70
65568;DHT22;52211;50.154;8.682;2022-07-06T15:46:03;28.00;26.80
65568;DHT22;52211;50.154;8.682;2022-07-06T15:48:33;28.00;26.90
65568;DHT22;52211;50.154;8.682;2022-07-06T15:51:00;28.00;27.00
65568;DHT22;52211;50.154;8.682;2022-07-06T15:53:27;28.10;27.10
65568;DHT22;52211;50.154;8.682;2022-07-06T15:55:56;28.30;27.20
65568;DHT22;52211;50.154;8.682;2022-07-06T15:58:31;28.50;27.10
65568;DHT22;52211;50.154;8.682;2022-07-06T16:01:07;28.60;27.10
65568;DHT22;52211;50.154;8.682;2022-07-06T16:03:35;28.70;27.00
65568;DHT22;52211;50.154;8.682;2022-07-06T16:06:07;28.80;27.00
65568;DHT22;52211;50.154;8.682;2022-07-06T16:08:38;28.80;27.00
65568;DHT22;52211;50.154;8.682;2022-07-06T16:11:16;28.90;26.90